createdAt,value
2019-05-11T00:00:34.120Z,99253.59
2019-05-11T00:03:02.800Z,99257.02
2019-05-11T00:05:31.406Z,99255.25
2019-05-11T00:07:59.936Z,99257.73
2019-05-11T00:10:28.544Z,99257.52
2019-05-11T00:12:57.050Z,99266.10
2019-05-11T00:15:25.439Z,99266.88
2019-05-11T00:17:54.147Z,99264.73
2019-05-11T00:20:22.639Z,99264.98
2019-05-11T00:22:51.260Z,99266.83
2019-05-11T00:25:19.859Z,99269.77
2019-05-11T00:27:48.424Z,99262.55
2019-05-11T00:30:16.902Z,99266.47
2019-05-11T00:32:45.473Z,99262.56
2019-05-11T00:35:13.958Z,99264.44
2019-05-11T00:37:42.465Z,99262.73
2019-05-11T00:40:14.401Z,99267.80
2019-05-11T00:42:41.409Z,99266.56
2019-05-11T00:45:10.123Z,99263.69
2019-05-11T00:47:38.618Z,99269.20
2019-05-11T00:50:07.356Z,99266.56
2019-05-11T00:52:35.982Z,99263.11
2019-05-11T00:55:04.730Z,99259.95
2019-05-11T00:57:33.265Z,99255.03
2019-05-11T01:00:01.838Z,99256.36
2019-05-11T01:02:30.542Z,99265.41
2019-05-11T01:04:59.052Z,99262.47
2019-05-11T01:07:27.647Z,99263.11
2019-05-11T01:09:56.314Z,99261.80
2019-05-11T01:12:24.863Z,99262.72
2019-05-11T01:14:53.377Z,99262.34
2019-05-11T01:17:21.765Z,99259.58
2019-05-11T01:19:50.551Z,99260.89
2019-05-11T01:22:19.121Z,99257.91
2019-05-11T01:24:47.603Z,99259.93
2019-05-11T01:27:16.214Z,99260.13
2019-05-11T01:29:44.737Z,99256.64
2019-05-11T01:32:13.281Z,99261.63
2019-05-11T01:34:41.841Z,99277.55
2019-05-11T01:37:10.425Z,99278.76
2019-05-11T01:39:38.940Z,99275.00
2019-05-11T01:42:07.562Z,99280.61
2019-05-11T01:44:36.121Z,99282.28
2019-05-11T01:47:04.521Z,99285.56
2019-05-11T01:49:33.134Z,99288.67
2019-05-11T01:52:01.615Z,99280.66
2019-05-11T01:54:30.097Z,99287.95
2019-05-11T01:56:58.565Z,99294.67
2019-05-11T01:59:27.055Z,99282.90
2019-05-11T02:01:55.668Z,99290.97
2019-05-11T02:04:24.168Z,99283.78
2019-05-11T02:06:52.667Z,99289.90
2019-05-11T02:09:21.054Z,99287.31
2019-05-11T02:11:49.754Z,99288.72
2019-05-11T02:14:18.414Z,99288.83
2019-05-11T02:16:47.065Z,99290.55
2019-05-11T02:19:15.731Z,99290.47
2019-05-11T02:21:44.440Z,99291.52
2019-05-11T02:24:12.923Z,99294.74
2019-05-11T02:26:41.468Z,99290.28
2019-05-11T02:29:10.026Z,99287.40
2019-05-11T02:31:38.612Z,99291.41
2019-05-11T02:34:07.119Z,99288.80
2019-05-11T02:36:35.695Z,99287.30
2019-05-11T02:39:05.973Z,99288.49
2019-05-11T02:41:37.169Z,99292.15
2019-05-11T02:44:05.357Z,99296.95
2019-05-11T02:46:33.911Z,99298.95
2019-05-11T02:49:02.543Z,99303.22
2019-05-11T02:51:32.261Z,99302.44
2019-05-11T02:54:01.854Z,99307.67
2019-05-11T02:56:30.435Z,99304.84
2019-05-11T02:58:59.056Z,99312.10
2019-05-11T03:01:27.655Z,99309.49
2019-05-11T03:03:56.189Z,99314.47
2019-05-11T03:06:24.753Z,99321.06
2019-05-11T03:08:53.354Z,99320.98
2019-05-11T03:11:21.915Z,99322.80
2019-05-11T03:13:50.394Z,99322.19
2019-05-11T03:16:18.813Z,99329.72
2019-05-11T03:18:47.442Z,99330.58
2019-05-11T03:21:15.948Z,99331.36
2019-05-11T03:23:44.444Z,99340.03
2019-05-11T03:26:13.064Z,99339.55
2019-05-11T03:28:41.686Z,99346.29
2019-05-11T03:31:10.201Z,99346.69
2019-05-11T03:33:38.990Z,99347.42
2019-05-11T03:36:07.617Z,99352.52
2019-05-11T03:38:36.120Z,99354.89
2019-05-11T03:41:04.761Z,99357.32
2019-05-11T03:43:33.374Z,99358.44
2019-05-11T03:46:01.922Z,99357.60
2019-05-11T03:48:30.521Z,99359.67
2019-05-11T03:50:58.946Z,99362.69
2019-05-11T03:53:27.650Z,99359.40
2019-05-11T03:55:56.174Z,99364.58
2019-05-11T03:58:26.313Z,99369.77
2019-05-11T04:00:55.086Z,99364.95
2019-05-11T04:03:23.594Z,99365.31
2019-05-11T04:05:52.200Z,99367.68
2019-05-11T04:08:20.682Z,99374.22
2019-05-11T04:10:49.234Z,99372.49
2019-05-11T04:13:17.720Z,99375.70
2019-05-11T04:15:46.236Z,99373.97
2019-05-11T04:18:14.849Z,99377.91
2019-05-11T04:20:43.341Z,99374.86
2019-05-11T04:23:11.846Z,99384.02
2019-05-11T04:25:40.348Z,99382.63
2019-05-11T04:28:08.832Z,99385.88
2019-05-11T04:30:37.366Z,99391.83
2019-05-11T04:33:05.943Z,99397.66
2019-05-11T04:35:34.455Z,99394.16
2019-05-11T04:38:03.066Z,99399.80
2019-05-11T04:40:31.662Z,99400.73
2019-05-11T04:43:00.269Z,99400.93
2019-05-11T04:45:28.740Z,99406.95
2019-05-11T04:47:57.247Z,99406.41
2019-05-11T04:50:25.732Z,99408.06
2019-05-11T04:52:54.242Z,99404.61
2019-05-11T04:55:22.745Z,99405.08
2019-05-11T04:57:51.332Z,99411.15
2019-05-11T05:00:20.087Z,99410.21
2019-05-11T05:02:48.654Z,99417.85
2019-05-11T05:05:17.251Z,99412.41
2019-05-11T05:07:48.797Z,99423.06
2019-05-11T05:10:19.939Z,99417.28
2019-05-11T05:12:51.639Z,99423.22
2019-05-11T05:15:17.817Z,99427.99
2019-05-11T05:17:46.346Z,99425.27
2019-05-11T05:20:14.883Z,99427.28
2019-05-11T05:22:43.463Z,99427.66
2019-05-11T05:25:13.806Z,99424.89
2019-05-11T05:27:42.329Z,99431.26
2019-05-11T05:30:11.348Z,99433.57
2019-05-11T05:32:40.096Z,99433.27
2019-05-11T05:35:09.236Z,99432.48
2019-05-11T05:37:37.712Z,99444.66
2019-05-11T05:40:06.606Z,99450.98
2019-05-11T05:42:35.232Z,99443.30
2019-05-11T05:45:04.164Z,99453.66
2019-05-11T05:47:32.675Z,99451.75
2019-05-11T05:50:01.288Z,99451.30
2019-05-11T05:52:29.997Z,99445.52
2019-05-11T05:54:58.532Z,99455.88
2019-05-11T05:57:27.237Z,99450.58
2019-05-11T05:59:55.692Z,99457.64
2019-05-11T06:02:24.316Z,99456.78
2019-05-11T06:04:52.919Z,99454.50
2019-05-11T06:07:21.548Z,99458.55
2019-05-11T06:09:50.136Z,99454.16
2019-05-11T06:12:18.832Z,99457.42
2019-05-11T06:14:47.425Z,99451.76
2019-05-11T06:17:15.930Z,99465.92
2019-05-11T06:19:44.452Z,99462.02
2019-05-11T06:22:13.087Z,99463.38
2019-05-11T06:24:41.515Z,99466.27
2019-05-11T06:27:10.143Z,99460.72
2019-05-11T06:29:38.556Z,99466.39
2019-05-11T06:32:07.250Z,99457.95
2019-05-11T06:34:35.890Z,99458.54
2019-05-11T06:37:04.305Z,99457.45
2019-05-11T06:39:32.803Z,99451.39
2019-05-11T06:42:01.310Z,99449.34
2019-05-11T06:44:29.904Z,99447.98
2019-05-11T06:46:58.408Z,99454.72
2019-05-11T06:49:26.918Z,99464.11
2019-05-11T06:51:55.536Z,99464.95
2019-05-11T06:54:24.142Z,99461.30
2019-05-11T06:56:52.682Z,99472.10
2019-05-11T06:59:21.262Z,99475.14
2019-05-11T07:01:49.869Z,99469.44
2019-05-11T07:04:18.450Z,99472.57
2019-05-11T07:06:47.068Z,99475.30
2019-05-11T07:09:15.554Z,99477.34
2019-05-11T07:11:44.034Z,99467.07
2019-05-11T07:14:20.722Z,99464.95
2019-05-11T07:16:43.006Z,99471.63
2019-05-11T07:19:11.417Z,99467.27
2019-05-11T07:21:39.894Z,99466.13
2019-05-11T07:24:08.511Z,99476.61
2019-05-11T07:26:37.102Z,99474.66
2019-05-11T07:29:05.683Z,99472.70
2019-05-11T07:31:34.101Z,99481.50
2019-05-11T07:34:02.581Z,99481.03
2019-05-11T07:36:31.099Z,99481.21
2019-05-11T07:38:59.691Z,99486.29
2019-05-11T07:41:28.359Z,99484.39
2019-05-11T07:43:59.017Z,99486.13
2019-05-11T07:46:28.840Z,99484.69
2019-05-11T07:48:58.421Z,99493.56
2019-05-11T07:51:28.729Z,99485.30
2019-05-11T07:53:57.931Z,99488.03
2019-05-11T07:56:28.559Z,99483.12
2019-05-11T07:58:58.021Z,99492.52
2019-05-11T08:01:28.230Z,99482.89
2019-05-11T08:03:58.588Z,99483.77
2019-05-11T08:06:28.618Z,99485.13
2019-05-11T08:08:58.746Z,99490.67
2019-05-11T08:11:30.749Z,99478.69
2019-05-11T08:13:58.410Z,99496.30
2019-05-11T08:16:28.537Z,99484.02
2019-05-11T08:18:58.956Z,99488.89
2019-05-11T08:21:28.514Z,99484.09
2019-05-11T08:23:58.714Z,99485.77
2019-05-11T08:26:28.286Z,99494.91
2019-05-11T08:28:58.023Z,99492.56
2019-05-11T08:31:27.895Z,99490.80
2019-05-11T08:33:58.277Z,99487.02
2019-05-11T08:36:28.830Z,99498.81
2019-05-11T08:38:58.607Z,99484.77
2019-05-11T08:41:28.119Z,99488.98
2019-05-11T08:43:58.736Z,99489.45
2019-05-11T08:46:27.997Z,99492.45
2019-05-11T08:48:56.727Z,99486.89
2019-05-11T08:51:25.215Z,99482.49
2019-05-11T08:53:53.684Z,99486.67
2019-05-11T08:56:22.258Z,99475.00
2019-05-11T08:58:50.860Z,99477.01
2019-05-11T09:01:19.341Z,99482.16
2019-05-11T09:03:48.100Z,99480.25
2019-05-11T09:06:17.927Z,99483.27
2019-05-11T09:08:49.097Z,99473.50
2019-05-11T09:11:18.992Z,99474.61
2019-05-11T09:13:48.907Z,99480.70
2019-05-11T09:16:18.996Z,99485.67
2019-05-11T09:18:48.193Z,99482.94
2019-05-11T09:21:19.027Z,99484.06
2019-05-11T09:23:48.621Z,99485.22
2019-05-11T09:26:18.103Z,99492.56
2019-05-11T09:28:47.649Z,99487.38
2019-05-11T09:31:18.660Z,99484.17
2019-05-11T09:33:47.944Z,99482.81
2019-05-11T09:36:18.033Z,99478.69
2019-05-11T09:38:48.930Z,99471.73
2019-05-11T09:41:18.016Z,99479.40
2019-05-11T09:43:48.275Z,99482.56
2019-05-11T09:46:18.926Z,99473.09
2019-05-11T09:48:48.323Z,99474.91
2019-05-11T09:51:18.414Z,99473.50
2019-05-11T09:53:48.377Z,99480.45
2019-05-11T09:56:18.355Z,99483.89
2019-05-11T09:58:48.042Z,99481.19
2019-05-11T10:01:18.260Z,99476.23
2019-05-11T10:03:48.085Z,99467.84
2019-05-11T10:06:19.081Z,99465.18
2019-05-11T10:08:48.771Z,99473.27
2019-05-11T10:11:19.012Z,99463.29
2019-05-11T10:13:47.920Z,99471.97
2019-05-11T10:16:17.878Z,99464.56
2019-05-11T10:18:49.044Z,99465.67
2019-05-11T10:21:18.861Z,99469.13
2019-05-11T10:23:48.937Z,99462.64
2019-05-11T10:26:18.803Z,99465.63
2019-05-11T10:28:48.358Z,99459.30
2019-05-11T10:31:18.124Z,99465.95
2019-05-11T10:33:49.028Z,99452.55
2019-05-11T10:36:18.887Z,99455.28
2019-05-11T10:38:48.716Z,99457.58
2019-05-11T10:41:18.355Z,99456.91
2019-05-11T10:43:48.893Z,99457.98
2019-05-11T10:46:22.921Z,99447.95
2019-05-11T10:48:48.492Z,99450.36
2019-05-11T10:51:18.425Z,99452.77
2019-05-11T10:53:51.349Z,99449.41
2019-05-11T10:56:17.974Z,99446.34
2019-05-11T10:58:48.193Z,99449.41
2019-05-11T11:01:18.202Z,99443.26
2019-05-11T11:03:48.335Z,99447.02
2019-05-11T11:06:18.787Z,99448.64
2019-05-11T11:08:48.617Z,99443.17
2019-05-11T11:11:18.563Z,99436.68
2019-05-11T11:13:48.094Z,99429.14
2019-05-11T11:16:32.718Z,99436.27
2019-05-11T11:18:48.564Z,99432.57
2019-05-11T11:21:22.082Z,99436.75
2019-05-11T11:23:48.290Z,99439.63
2019-05-11T11:26:18.433Z,99436.42
2019-05-11T11:28:47.767Z,99431.06
2019-05-11T11:31:18.774Z,99437.53
2019-05-11T11:33:48.884Z,99436.09
2019-05-11T11:36:17.915Z,99434.88
2019-05-11T11:38:47.833Z,99436.52
2019-05-11T11:41:18.610Z,99434.09
2019-05-11T11:43:48.363Z,99433.42
2019-05-11T11:46:18.739Z,99434.75
2019-05-11T11:48:48.988Z,99427.52
2019-05-11T11:51:18.809Z,99424.42
2019-05-11T11:53:47.939Z,99416.69
2019-05-11T11:56:18.874Z,99420.03
2019-05-11T11:58:48.840Z,99415.22
2019-05-11T12:01:18.941Z,99412.91
2019-05-11T12:03:48.754Z,99422.97
2019-05-11T12:06:18.409Z,99415.48
2019-05-11T12:08:49.764Z,99408.05
2019-05-11T12:11:18.778Z,99407.87
2019-05-11T12:13:47.776Z,99401.52
2019-05-11T12:16:17.983Z,99406.72
2019-05-11T12:18:48.613Z,99407.06
2019-05-11T12:21:18.582Z,99400.77
2019-05-11T12:23:48.628Z,99403.22
2019-05-11T12:26:17.869Z,99395.67
2019-05-11T12:28:48.717Z,99396.03
2019-05-11T12:31:18.344Z,99407.01
2019-05-11T12:33:48.197Z,99402.67
2019-05-11T12:36:18.696Z,99403.75
2019-05-11T12:38:48.901Z,99405.20
2019-05-11T12:41:19.075Z,99389.53
2019-05-11T12:43:48.959Z,99392.58
2019-05-11T12:46:19.467Z,99392.38
2019-05-11T12:48:48.790Z,99381.78
2019-05-11T12:51:18.622Z,99377.45
2019-05-11T12:53:47.936Z,99378.61
2019-05-11T12:56:18.901Z,99381.34
2019-05-11T12:58:48.937Z,99381.66
2019-05-11T13:01:18.834Z,99381.17
2019-05-11T13:03:49.254Z,99381.84
2019-05-11T13:06:19.080Z,99368.06
2019-05-11T13:08:48.347Z,99373.61
2019-05-11T13:11:18.690Z,99363.88
2019-05-11T13:13:48.352Z,99368.93
2019-05-11T13:16:18.392Z,99366.64
2019-05-11T13:18:48.781Z,99370.17
2019-05-11T13:21:18.245Z,99372.33
2019-05-11T13:23:48.863Z,99369.98
2019-05-11T13:26:18.050Z,99364.95
2019-05-11T13:28:48.362Z,99362.44
2019-05-11T13:31:18.705Z,99361.09
2019-05-11T13:33:48.126Z,99363.36
2019-05-11T13:36:18.554Z,99360.43
2019-05-11T13:38:48.402Z,99360.11
2019-05-11T13:41:18.774Z,99357.39
2019-05-11T13:43:48.578Z,99349.59
2019-05-11T13:46:18.124Z,99349.27
2019-05-11T13:48:47.595Z,99351.63
2019-05-11T13:51:18.271Z,99346.94
2019-05-11T13:53:48.223Z,99352.27
2019-05-11T13:56:18.441Z,99357.92
2019-05-11T13:58:48.743Z,99347.11
2019-05-11T14:01:18.494Z,99348.78
2019-05-11T14:03:48.474Z,99336.53
2019-05-11T14:06:18.379Z,99347.94
2019-05-11T14:08:48.183Z,99350.30
2019-05-11T14:11:18.289Z,99349.30
2019-05-11T14:13:47.969Z,99356.83
2019-05-11T14:16:18.546Z,99358.34
2019-05-11T14:18:48.893Z,99355.66
2019-05-11T14:21:18.615Z,99357.50
2019-05-11T14:23:48.489Z,99360.61
2019-05-11T14:26:19.255Z,99348.86
2019-05-11T14:28:48.160Z,99355.95
2019-05-11T14:31:18.971Z,99349.77
2019-05-11T14:33:48.851Z,99346.70
2019-05-11T14:36:18.418Z,99351.95
2019-05-11T14:38:48.729Z,99340.80
2019-05-11T14:41:18.343Z,99345.25
2019-05-11T14:43:49.004Z,99350.97
2019-05-11T14:46:18.263Z,99350.52
2019-05-11T14:48:48.089Z,99351.53
2019-05-11T14:51:18.105Z,99349.34
2019-05-11T14:53:48.151Z,99363.47
2019-05-11T14:56:19.087Z,99352.91
2019-05-11T14:58:49.281Z,99340.77
2019-05-11T15:01:18.432Z,99349.88
2019-05-11T15:03:48.571Z,99354.61
2019-05-11T15:06:18.835Z,99355.10
2019-05-11T15:08:48.060Z,99357.75
2019-05-11T15:11:18.866Z,99344.16
2019-05-11T15:13:48.893Z,99351.17
2019-05-11T15:16:18.656Z,99352.83
2019-05-11T15:18:48.452Z,99355.66
2019-05-11T15:21:19.006Z,99346.13
2019-05-11T15:23:47.936Z,99350.64
2019-05-11T15:26:18.672Z,99347.16
2019-05-11T15:28:48.585Z,99353.19
2019-05-11T15:31:22.220Z,99352.16
2019-05-11T15:33:48.915Z,99349.48
2019-05-11T15:36:19.333Z,99354.84
2019-05-11T15:38:48.354Z,99361.36
2019-05-11T15:41:17.780Z,99363.23
2019-05-11T15:43:47.932Z,99360.83
2019-05-11T15:46:19.451Z,99359.34
2019-05-11T15:48:56.632Z,99356.13
2019-05-11T15:51:18.753Z,99362.16
2019-05-11T15:53:50.243Z,99368.15
2019-05-11T15:56:19.135Z,99361.14
2019-05-11T15:58:48.708Z,99367.47
2019-05-11T16:01:18.593Z,99376.19
2019-05-11T16:03:50.004Z,99380.56
2019-05-11T16:06:18.546Z,99375.52
2019-05-11T16:08:47.404Z,99381.05
2019-05-11T16:11:17.976Z,99371.80
2019-05-11T16:13:48.470Z,99376.17
2019-05-11T16:16:16.938Z,99382.83
2019-05-11T16:18:45.452Z,99384.52
2019-05-11T16:21:13.932Z,99383.98
2019-05-11T16:23:42.514Z,99388.17
2019-05-11T16:26:11.108Z,99385.80
2019-05-11T16:28:39.746Z,99386.09
2019-05-11T16:31:09.240Z,99386.28
2019-05-11T16:33:38.039Z,99384.74
2019-05-11T16:36:08.997Z,99394.98
2019-05-11T16:38:37.966Z,99400.11
2019-05-11T16:41:09.091Z,99406.20
2019-05-11T16:43:38.565Z,99409.48
2019-05-11T16:46:08.632Z,99409.11
2019-05-11T16:48:38.261Z,99417.05
2019-05-11T16:51:08.703Z,99426.93
2019-05-11T16:53:39.002Z,99425.38
2019-05-11T16:56:08.532Z,99440.81
2019-05-11T16:58:38.150Z,99432.25
2019-05-11T17:01:08.580Z,99443.50
2019-05-11T17:03:38.463Z,99451.20
2019-05-11T17:06:08.277Z,99449.25
2019-05-11T17:08:38.356Z,99443.60
2019-05-11T17:11:08.169Z,99446.94
2019-05-11T17:13:37.996Z,99453.26
2019-05-11T17:16:08.746Z,99453.72
2019-05-11T17:18:37.328Z,99454.92
2019-05-11T17:21:07.795Z,99458.20
2019-05-11T17:23:38.457Z,99453.47
2019-05-11T17:26:08.759Z,99460.31
2019-05-11T17:28:38.452Z,99459.30
2019-05-11T17:31:07.994Z,99467.41
2019-05-11T17:33:38.470Z,99468.55
2019-05-11T17:36:08.465Z,99469.79
2019-05-11T17:38:38.929Z,99464.82
2019-05-11T17:41:08.478Z,99467.35
2019-05-11T17:43:38.668Z,99465.44
2019-05-11T17:46:08.027Z,99471.42
2019-05-11T17:48:38.814Z,99476.44
2019-05-11T17:51:20.620Z,99478.51
2019-05-11T17:53:37.898Z,99486.12
2019-05-11T17:56:06.574Z,99486.53
2019-05-11T17:58:37.650Z,99489.00
2019-05-11T18:01:05.923Z,99496.69
2019-05-11T18:03:34.505Z,99502.16
2019-05-11T18:06:03.131Z,99513.55
2019-05-11T18:08:31.741Z,99518.13
2019-05-11T18:11:00.335Z,99521.52
2019-05-11T18:13:28.913Z,99526.14
2019-05-11T18:15:57.909Z,99533.59
2019-05-11T18:18:28.923Z,99534.22
2019-05-11T18:20:57.875Z,99538.95
2019-05-11T18:23:28.243Z,99540.62
2019-05-11T18:25:56.960Z,99546.55
2019-05-11T18:28:25.567Z,99550.13
2019-05-11T18:30:54.069Z,99551.89
2019-05-11T18:33:22.650Z,99560.54
2019-05-11T18:35:51.226Z,99562.99
2019-05-11T18:38:19.782Z,99573.59
2019-05-11T18:40:48.709Z,99575.53
2019-05-11T18:43:18.845Z,99577.88
2019-05-11T18:45:48.848Z,99586.08
2019-05-11T18:48:18.550Z,99593.31
2019-05-11T18:50:49.122Z,99597.87
2019-05-11T18:53:18.619Z,99595.36
2019-05-11T18:55:48.618Z,99601.53
2019-05-11T18:58:18.532Z,99605.84
2019-05-11T19:00:48.817Z,99608.72
2019-05-11T19:03:19.280Z,99616.24
2019-05-11T19:05:48.293Z,99615.44
2019-05-11T19:08:18.936Z,99620.00
2019-05-11T19:10:48.765Z,99623.72
2019-05-11T19:13:17.618Z,99634.81
2019-05-11T19:15:48.498Z,99630.57
2019-05-11T19:18:16.771Z,99631.52
2019-05-11T19:20:47.072Z,99629.95
2019-05-11T19:23:15.728Z,99635.30
2019-05-11T19:25:44.309Z,99635.23
2019-05-11T19:28:12.901Z,99635.84
2019-05-11T19:30:41.306Z,99628.78
2019-05-11T19:33:11.307Z,99637.23
2019-05-11T19:35:39.988Z,99633.30
2019-05-11T19:38:08.875Z,99636.02
2019-05-11T19:40:38.344Z,99639.14
2019-05-11T19:43:08.101Z,99642.83
2019-05-11T19:45:38.463Z,99641.03
2019-05-11T19:48:08.339Z,99642.37
2019-05-11T19:50:40.350Z,99646.36
2019-05-11T19:53:08.401Z,99651.59
2019-05-11T19:55:37.461Z,99655.75
2019-05-11T19:58:05.943Z,99645.11
2019-05-11T20:00:34.538Z,99642.20
2019-05-11T20:03:06.026Z,99642.88
2019-05-11T20:05:34.736Z,99640.36
2019-05-11T20:08:03.351Z,99645.92
2019-05-11T20:10:33.330Z,99652.20
2019-05-11T20:13:02.248Z,99656.45
2019-05-11T20:15:30.830Z,99655.06
2019-05-11T20:17:59.457Z,99652.20
2019-05-11T20:20:28.562Z,99649.53
2019-05-11T20:22:58.493Z,99649.53
2019-05-11T20:25:28.889Z,99650.52
2019-05-11T20:27:58.498Z,99650.41
2019-05-11T20:30:27.213Z,99648.00
2019-05-11T20:32:55.815Z,99645.70
2019-05-11T20:35:24.405Z,99651.72
2019-05-11T20:37:52.997Z,99657.63
2019-05-11T20:40:21.493Z,99653.66
2019-05-11T20:42:50.005Z,99648.97
2019-05-11T20:45:19.011Z,99655.58
2019-05-11T20:47:48.716Z,99655.00
2019-05-11T20:50:18.559Z,99659.56
2019-05-11T20:52:48.102Z,99663.69
2019-05-11T20:55:18.294Z,99657.92
2019-05-11T20:57:48.254Z,99653.44
2019-05-11T21:00:19.094Z,99658.66
2019-05-11T21:02:48.673Z,99655.23
2019-05-11T21:05:18.247Z,99653.06
2019-05-11T21:07:46.959Z,99651.14
2019-05-11T21:10:15.805Z,99651.50
2019-05-11T21:12:44.283Z,99657.80
2019-05-11T21:15:14.697Z,99652.70
2019-05-11T21:17:43.376Z,99653.83
2019-05-11T21:20:12.166Z,99650.60
2019-05-11T21:22:40.980Z,99654.84
2019-05-11T21:25:10.068Z,99648.22
2019-05-11T21:27:38.864Z,99652.74
2019-05-11T21:30:09.071Z,99651.13
2019-05-11T21:32:38.567Z,99646.38
2019-05-11T21:35:08.851Z,99651.92
2019-05-11T21:37:38.825Z,99653.66
2019-05-11T21:40:08.737Z,99653.91
2019-05-11T21:42:38.893Z,99653.16
2019-05-11T21:45:09.369Z,99657.66
2019-05-11T21:47:38.984Z,99664.16
2019-05-11T21:50:08.528Z,99660.32
2019-05-11T21:52:38.369Z,99662.42
2019-05-11T21:55:09.303Z,99666.81
2019-05-11T21:57:38.360Z,99676.81
2019-05-11T22:00:09.324Z,99675.58
2019-05-11T22:02:38.623Z,99687.40
2019-05-11T22:05:08.266Z,99670.55
2019-05-11T22:07:38.941Z,99670.83
2019-05-11T22:10:08.833Z,99666.09
2019-05-11T22:12:38.724Z,99668.27
2019-05-11T22:15:09.715Z,99666.16
2019-05-11T22:17:39.205Z,99673.11
2019-05-11T22:20:08.863Z,99669.74
2019-05-11T22:22:39.073Z,99677.05
2019-05-11T22:25:08.599Z,99674.05
2019-05-11T22:27:38.927Z,99673.45
2019-05-11T22:30:08.870Z,99674.66
2019-05-11T22:32:38.341Z,99684.85
2019-05-11T22:35:07.712Z,99686.17
2019-05-11T22:37:38.554Z,99681.24
2019-05-11T22:40:08.295Z,99684.56
2019-05-11T22:42:37.301Z,99682.01
2019-05-11T22:45:08.587Z,99685.92
2019-05-11T22:47:39.405Z,99682.33
2019-05-11T22:50:08.265Z,99679.02
2019-05-11T22:52:39.818Z,99677.82
2019-05-11T22:55:11.370Z,99680.89
2019-05-11T22:57:38.654Z,99678.97
2019-05-11T23:00:09.216Z,99678.55
2019-05-11T23:02:38.264Z,99678.76
2019-05-11T23:05:08.537Z,99678.97
2019-05-11T23:07:37.686Z,99678.52
2019-05-11T23:10:09.043Z,99678.00
2019-05-11T23:12:38.338Z,99681.31
2019-05-11T23:15:12.267Z,99684.77
2019-05-11T23:17:41.221Z,99679.27
2019-05-11T23:20:10.331Z,99681.11
2019-05-11T23:22:56.836Z,99677.67
2019-05-11T23:25:18.548Z,99676.56
2019-05-11T23:27:48.521Z,99673.23
2019-05-11T23:30:19.612Z,99676.40
2019-05-11T23:32:48.874Z,99671.28
2019-05-11T23:35:18.715Z,99671.38
2019-05-11T23:37:49.515Z,99663.31
2019-05-11T23:40:19.185Z,99665.59
2019-05-11T23:42:49.083Z,99666.80
2019-05-11T23:45:19.357Z,99668.71
2019-05-11T23:47:48.845Z,99657.00
2019-05-11T23:50:18.972Z,99660.45
2019-05-11T23:52:48.795Z,99660.50
2019-05-11T23:55:19.193Z,99655.80
2019-05-11T23:57:48.745Z,99649.45
